Time;durP1;ratioP1;P1;durP2;ratioP2;P2;SDS_P1;SDS_P2;PMS_P1;PMS_P2;Temp;Humidity;BMP_temperature;BMP_pressure;BME280_temperature;BME280_humidity;BME280_pressure;Samples;Min_cycle;Max_cycle;Signal;HPM_P1;HPM_P2
2023/06/17 00:01:12;;;;;;;;;;;;;;;22.08;50.15;100701.41;4966585;28;19918;-78
2023/06/17 00:04:04;;;;;;;;;;;;;;;22.10;50.71;100700.97;4992673;28;19918;-77
2023/06/17 00:06:56;;;;;;;;;;;;;;;22.04;50.25;100697.03;4993191;28;19914;-80
2023/06/17 00:09:47;;;;;;;;;;;;;;;21.99;51.13;100695.41;4965916;28;19914;-78
2023/06/17 00:12:39;;;;;;;;;;;;;;;21.96;51.51;100690.69;4969063;28;19913;-78
2023/06/17 00:15:32;;;;;;;;;;;;;;;21.98;51.25;100688.31;4977965;28;19913;-78
2023/06/17 00:18:24;;;;;;;;;;;;;;;22.03;50.79;100678.84;4982332;28;19914;-77
2023/06/17 00:21:16;;;;;;;;;;;;;;;22.13;50.48;100687.16;4981799;28;20378;-77
2023/06/17 00:24:08;;;;;;;;;;;;;;;22.14;49.88;100680.44;4978578;28;19918;-78
2023/06/17 00:26:59;;;;;;;;;;;;;;;22.17;49.36;100684.38;4996701;28;19914;-78
2023/06/17 00:29:49;;;;;;;;;;;;;;;22.21;48.98;100687.94;4976053;28;19914;-78
2023/06/17 00:32:41;;;;;;;;;;;;;;;22.19;49.61;100682.03;4974310;28;19914;-78
2023/06/17 00:35:32;;;;;;;;;;;;;;;22.24;49.26;100672.53;4977887;28;19918;-78
2023/06/17 00:38:24;;;;;;;;;;;;;;;22.10;49.90;100685.16;4978481;28;20290;-78
2023/06/17 00:41:16;;;;;;;;;;;;;;;22.10;50.22;100681.59;4976439;28;19917;-77
2023/06/17 00:44:09;;;;;;;;;;;;;;;22.16;49.90;100686.34;4964709;28;20383;-77
2023/06/17 00:47:01;;;;;;;;;;;;;;;22.15;49.91;100673.69;4971879;28;19922;-77
2023/06/17 00:49:53;;;;;;;;;;;;;;;22.16;49.94;100680.03;4975565;28;19914;-77
2023/06/17 00:52:46;;;;;;;;;;;;;;;22.21;49.61;100678.84;4959598;28;19915;-78
2023/06/17 00:55:37;;;;;;;;;;;;;;;22.13;50.38;100689.94;4971551;28;19915;-77
2023/06/17 00:58:31;;;;;;;;;;;;;;;22.04;50.62;100672.91;4957927;29;19914;-77
2023/06/17 01:01:23;;;;;;;;;;;;;;;22.01;51.42;100678.41;4983630;28;19914;-78
2023/06/17 01:04:15;;;;;;;;;;;;;;;21.94;51.83;100683.97;4976766;28;19922;-78
2023/06/17 01:07:07;;;;;;;;;;;;;;;21.88;51.93;100677.19;4996342;28;19914;-77
2023/06/17 01:10:04;;;;;;;;;;;;;;;21.80;51.98;100692.97;4983244;28;19913;-78
2023/06/17 01:12:59;;;;;;;;;;;;;;;21.74;52.29;100689.81;4982284;28;19913;-78
2023/06/17 01:15:52;;;;;;;;;;;;;;;21.75;52.11;100693.38;4981878;28;19913;-77
2023/06/17 01:18:42;;;;;;;;;;;;;;;21.67;53.39;100692.56;4996259;28;19914;-78
2023/06/17 01:21:34;;;;;;;;;;;;;;;21.73;53.97;100688.25;4968115;28;19913;-77
2023/06/17 01:24:29;;;;;;;;;;;;;;;21.76;53.16;100692.19;4976095;28;20302;-78
2023/06/17 01:27:21;;;;;;;8.77;4.10;;;;;;;21.75;52.95;100679.53;4979715;28;20412;-78
2023/06/17 01:30:16;;;;;;;6.10;3.70;;;;;;;21.68;53.04;100685.84;4964461;28;20408;-78
2023/06/17 01:33:10;;;;;;;6.07;4.07;;;;;;;21.64;53.03;100679.50;4961846;28;20050;-78
2023/06/17 01:36:11;;;;;;;7.07;3.38;;;;;;;21.61;53.43;100683.06;4976806;28;20734;-78
2023/06/17 01:39:12;;;;;;;3.85;3.00;;;;;;;21.54;54.18;100679.44;4957092;28;20045;-78
2023/06/17 01:42:06;;;;;;;5.40;3.67;;;;;;;21.44;54.53;100675.47;4975737;28;20042;-78
2023/06/17 01:45:03;;;;;;;7.43;3.97;;;;;;;21.49;53.81;100663.22;4963763;28;20073;-77
2023/06/17 01:47:55;;;;;;;7.60;3.70;;;;;;;21.49;53.38;100661.25;4974970;28;20543;-78
2023/06/17 01:50:49;;;;;;;5.72;4.05;;;;;;;21.43;53.82;100667.56;4978347;28;20061;-78
2023/06/17 01:53:44;;;;;;;10.82;5.00;;;;;;;21.46;53.72;100666.78;4960925;28;20042;-78
2023/06/17 01:56:36;;;;;;;4.55;3.70;;;;;;;21.41;53.38;100664.41;4975058;28;20046;-77
2023/06/17 01:59:30;;;;;;;7.95;4.22;;;;;;;21.27;53.81;100654.88;4977077;28;20042;-78
2023/06/17 02:02:25;;;;;;;5.57;3.83;;;;;;;21.12;54.76;100660.69;4974523;28;20045;-78
2023/06/17 02:05:20;;;;;;;5.13;3.20;;;;;;;20.95;55.47;100656.66;5082396;23;20423;-79
2023/06/17 02:08:14;;;;;;;6.53;4.20;;;;;;;20.85;55.47;100655.41;5003232;28;20063;-79
2023/06/17 02:11:06;;;;;;;7.55;3.92;;;;;;;20.95;56.26;100650.31;4992961;28;20033;-78
2023/06/17 02:14:01;;;;;;;5.25;4.07;;;;;;;21.00;55.48;100656.28;5010874;28;20048;-78
2023/06/17 02:16:55;;;;;;;6.43;3.80;;;;;;;20.98;55.55;100646.81;5000856;28;20529;-79
2023/06/17 02:19:47;;;;;;;5.22;3.30;;;;;;;21.04;55.47;100646.03;5006961;28;20526;-77
2023/06/17 02:22:42;;;;;;;8.23;3.33;;;;;;;20.91;55.92;100653.09;4999929;28;20049;-78
2023/06/17 02:25:36;;;;;;;9.55;3.50;;;;;;;20.91;55.75;100658.59;5008011;28;20061;-78
2023/06/17 02:28:31;;;;;;;10.63;3.72;;;;;;;20.83;56.29;100655.00;4980058;28;20049;-80
2023/06/17 02:31:26;;;;;;;15.90;4.18;;;;;;;20.75;56.72;100658.13;4997393;28;20522;-79
2023/06/17 02:34:18;;;;;;;;;;;;;;;20.79;56.47;100659.72;4992450;28;20045;-79
2023/06/17 02:37:12;;;;;;;6.82;4.22;;;;;;;20.82;56.27;100649.88;4998715;28;19913;-80
2023/06/17 02:40:08;;;;;;;6.63;4.07;;;;;;;20.75;56.47;100645.09;4993351;28;20424;-79
2023/06/17 02:43:03;;;;;;;7.13;4.00;;;;;;;20.77;56.29;100647.47;5018908;28;20429;-80
2023/06/17 02:45:57;;;;;;;5.60;3.83;;;;;;;20.75;55.97;100636.78;5001055;28;20053;-77
2023/06/17 02:48:52;;;;;;;8.20;4.47;;;;;;;20.71;55.96;100630.47;4981305;28;20149;-78
2023/06/17 02:51:46;;;;;;;8.60;4.40;;;;;;;20.74;55.78;100631.66;5007949;28;20045;-78
2023/06/17 02:54:41;;;;;;;15.38;4.40;;;;;;;20.66;55.66;100643.84;5020296;28;20048;-77
2023/06/17 02:57:39;;;;;;;10.35;4.70;;;;;;;20.66;55.54;100641.88;4999692;28;20072;-79
2023/06/17 03:00:32;;;;;;;12.88;5.47;;;;;;;20.59;56.38;100646.56;5001539;28;20044;-77
2023/06/17 03:03:33;;;;;;;9.02;4.00;;;;;;;20.58;55.86;100639.44;4998307;28;20053;-79
2023/06/17 03:06:25;;;;;;;7.47;4.97;;;;;;;20.67;55.39;100637.16;4989507;28;20517;-79
2023/06/17 03:09:19;;;;;;;12.95;4.68;;;;;;;20.64;54.97;100638.69;4987664;28;20053;-77
2023/06/17 03:12:14;;;;;;;6.72;4.13;;;;;;;20.59;54.93;100630.78;4990498;28;20036;-79
2023/06/17 03:15:02;;;;;;;6.70;4.45;;;;;;;20.58;54.52;100633.91;4988719;28;20426;-78
2023/06/17 03:17:57;;;;;;;9.02;3.78;;;;;;;20.64;54.37;100646.97;5004114;28;20045;-79
2023/06/17 03:20:52;;;;;;;5.65;3.83;;;;;;;20.59;54.24;100639.06;5005093;28;20048;-80
2023/06/17 03:23:45;;;;;;;11.95;3.50;;;;;;;20.43;53.90;100644.06;4991104;28;20049;-79
2023/06/17 03:26:40;;;;;;;7.82;4.05;;;;;;;20.39;53.68;100646.03;5003692;28;20072;-79
2023/06/17 03:29:34;;;;;;;5.35;3.67;;;;;;;20.37;53.47;100646.41;5000641;28;20041;-79
2023/06/17 03:32:26;;;;;;;4.45;3.10;;;;;;;20.36;53.64;100644.84;4985938;28;20061;-80
2023/06/17 03:35:21;;;;;;;7.32;3.38;;;;;;;20.43;53.25;100642.09;4991799;28;20531;-79
2023/06/17 03:38:16;;;;;;;4.72;3.40;;;;;;;20.45;52.73;100638.97;5006667;28;20064;-77
2023/06/17 03:41:10;;;;;;;4.72;3.38;;;;;;;20.41;52.63;100636.19;5001913;28;20049;-77
2023/06/17 03:44:05;;;;;;;6.55;3.58;;;;;;;20.38;52.57;100631.41;4991301;28;20432;-78
2023/06/17 03:46:59;;;;;;;5.30;3.42;;;;;;;20.32;52.27;100621.88;4995912;28;20045;-79
2023/06/17 03:49:54;;;;;;;4.40;2.72;;;;;;;20.32;52.89;100627.41;5002311;28;20057;-80
2023/06/17 03:52:48;;;;;;;5.43;3.28;;;;;;;20.34;52.15;100633.34;4996258;28;20044;-77
2023/06/17 03:55:44;;;;;;;5.20;2.85;;;;;;;20.30;52.27;100638.03;4992005;28;20518;-78
2023/06/17 03:58:38;;;;;;;5.85;3.20;;;;;;;20.27;52.00;100638.00;5003630;28;20045;-79
2023/06/17 04:01:33;;;;;;;10.55;2.80;;;;;;;20.36;51.99;100639.31;4984263;28;20057;-79
2023/06/17 04:04:28;;;;;;;6.22;2.90;;;;;;;20.37;51.55;100640.88;4983787;28;20045;-80
2023/06/17 04:07:22;;;;;;;4.85;2.88;;;;;;;20.27;51.77;100636.03;5004264;28;20048;-80
2023/06/17 04:10:17;;;;;;;4.35;2.88;;;;;;;20.40;50.97;100642.09;5010603;28;20041;-78
2023/06/17 04:13:12;;;;;;;5.13;3.28;;;;;;;20.33;50.86;100636.50;4995310;28;20042;-76
2023/06/17 04:16:06;;;;;;;7.22;3.13;;;;;;;20.22;51.12;100628.09;4970132;28;20046;-79
2023/06/17 04:19:01;;;;;;;4.18;2.90;;;;;;;20.23;51.48;100629.69;4967922;28;20069;-78
2023/06/17 04:21:55;;;;;;;4.13;2.78;;;;;;;20.25;51.73;100621.81;4985610;28;20040;-79
2023/06/17 04:24:50;;;;;;;4.03;2.65;;;;;;;20.31;51.29;100620.31;4998477;28;20438;-80
2023/06/17 04:27:44;;;;;;;4.03;2.83;;;;;;;20.43;50.97;100611.72;4978571;28;20526;-80
2023/06/17 04:30:39;;;;;;;3.90;2.67;;;;;;;20.56;50.34;100614.19;4985333;28;20044;-79
2023/06/17 04:33:32;;;;;;;4.57;2.80;;;;;;;20.60;50.11;100615.00;4998515;28;20049;-79
2023/06/17 04:36:28;;;;;;;7.05;3.58;;;;;;;20.55;49.66;100613.38;4987234;28;20522;-79
2023/06/17 04:39:23;;;;;;;4.78;2.88;;;;;;;20.53;49.61;100614.94;4995874;28;20040;-79
2023/06/17 04:42:17;;;;;;;5.03;2.30;;;;;;;20.57;49.76;100615.78;5007399;28;20069;-79
2023/06/17 04:45:12;;;;;;;4.30;3.00;;;;;;;20.60;49.09;100623.28;4993162;28;20041;-79
2023/06/17 04:48:07;;;;;;;3.33;2.17;;;;;;;20.60;49.60;100618.53;4994106;28;20053;-79
2023/06/17 04:51:02;;;;;;;4.80;2.83;;;;;;;20.65;48.35;100615.41;4978272;28;20517;-79
2023/06/17 04:53:57;;;;;;;4.68;2.33;;;;;;;20.67;48.20;100626.09;5004042;28;20048;-78
2023/06/17 04:56:49;;;;;;;5.05;2.70;;;;;;;20.67;48.50;100620.56;4976223;28;20050;-78
2023/06/17 04:59:43;;;;;;;4.18;2.58;;;;;;;20.73;48.18;100616.25;4983250;28;20096;-77
2023/06/17 05:02:38;;;;;;;8.73;2.40;;;;;;;20.82;48.25;100619.47;4990116;28;20053;-79
2023/06/17 05:05:33;;;;;;;4.53;2.60;;;;;;;20.91;47.67;100619.91;4999205;28;20411;-79
2023/06/17 05:08:27;;;;;;;7.10;3.22;;;;;;;20.93;47.33;100618.31;4981511;28;20110;-80
2023/06/17 05:11:19;;;;;;;;;;;;;;;21.00;46.87;100630.59;5000843;28;20049;-79
2023/06/17 05:14:14;;;;;;;4.88;2.80;;;;;;;20.99;47.55;100627.03;4984426;28;19913;-78
2023/06/17 05:17:07;;;;;;;3.92;2.50;;;;;;;21.01;47.13;100624.69;4981146;28;20048;-80
2023/06/17 05:20:02;;;;;;;4.30;2.58;;;;;;;21.04;46.47;100623.09;5002191;28;20422;-79
2023/06/17 05:22:58;;;;;;;9.07;2.47;;;;;;;21.04;46.43;100629.44;4995729;28;20041;-79
2023/06/17 05:25:53;;;;;;;10.88;3.50;;;;;;;21.03;47.49;100638.13;4991186;28;20054;-80
2023/06/17 05:28:48;;;;;;;6.38;2.53;;;;;;;21.09;47.81;100637.38;4992145;28;20049;-79
2023/06/17 05:31:41;;;;;;;;;;;;;;;21.13;47.74;100638.16;5000491;28;20036;-80
2023/06/17 05:34:36;;;;;;;4.13;2.53;;;;;;;21.19;47.60;100630.31;5018084;28;19913;-79
2023/06/17 05:37:30;;;;;;;4.97;2.90;;;;;;;21.22;47.97;100630.34;4985292;28;20411;-80
2023/06/17 05:40:25;;;;;;;4.60;3.10;;;;;;;21.31;47.88;100635.50;4996156;28;20057;-79
2023/06/17 05:43:20;;;;;;;4.43;2.55;;;;;;;21.35;47.04;100639.06;4986608;28;20049;-78
2023/06/17 05:46:12;;;;;;;3.70;2.63;;;;;;;21.35;47.17;100628.00;4995314;28;20044;-79
2023/06/17 05:49:07;;;;;;;9.75;2.88;;;;;;;21.45;48.44;100632.00;5002461;28;20046;-79
2023/06/17 05:52:01;;;;;;;8.13;2.25;;;;;;;21.45;47.32;100632.78;5004053;28;20060;-79
2023/06/17 05:54:56;;;;;;;8.43;2.85;;;;;;;21.56;47.03;100628.09;4978484;28;20053;-79
2023/06/17 05:57:51;;;;;;;7.80;2.40;;;;;;;21.61;47.45;100630.47;4990490;28;20041;-78
2023/06/17 06:00:46;;;;;;;9.02;2.60;;;;;;;21.70;47.14;100630.06;5004001;28;20131;-79
2023/06/17 06:03:40;;;;;;;4.75;2.42;;;;;;;21.71;46.36;100632.47;5009583;28;20053;-80
2023/06/17 06:06:35;;;;;;;11.05;2.30;;;;;;;21.74;46.16;100639.19;5009544;28;20049;-79
2023/06/17 06:09:29;;;;;;;6.90;2.88;;;;;;;21.82;46.46;100635.25;5003554;28;20532;-79
2023/06/17 06:12:24;;;;;;;3.90;2.30;;;;;;;21.88;45.28;100642.00;4991578;28;20057;-80
2023/06/17 06:15:16;;;;;;;17.23;3.33;;;;;;;21.95;46.37;100639.25;4979193;28;20049;-79
2023/06/17 06:18:11;;;;;;;5.97;2.70;;;;;;;22.06;46.24;100642.03;5001494;28;20052;-80
2023/06/17 06:21:05;;;;;;;6.88;2.28;;;;;;;22.10;45.81;100632.53;4990904;28;20109;-81
2023/06/17 06:24:00;;;;;;;9.52;2.42;;;;;;;22.16;45.35;100630.94;4991986;28;20406;-81
2023/06/17 06:26:57;;;;;;;5.20;3.30;;;;;;;22.23;45.43;100637.69;5008819;28;20048;-81
2023/06/17 06:29:52;;;;;;;5.88;3.33;;;;;;;22.28;46.61;100645.59;4985906;28;20541;-82
2023/06/17 06:32:46;;;;;;;4.90;2.67;;;;;;;22.35;46.26;100640.06;5005263;28;20096;-80
2023/06/17 06:35:41;;;;;;;10.82;3.08;;;;;;;22.40;46.17;100642.44;5004678;28;20529;-81
2023/06/17 06:38:36;;;;;;;9.88;2.92;;;;;;;22.47;46.15;100636.88;4978129;28;20064;-81
2023/06/17 06:41:28;;;;;;;5.10;3.17;;;;;;;22.57;45.76;100638.84;5018504;28;20048;-82
2023/06/17 06:44:39;;;;;;;7.68;2.63;;;;;;;22.69;45.59;100632.09;5000708;28;20419;-82
2023/06/17 06:47:33;;;;;;;5.65;2.60;;;;;;;22.80;45.64;100644.00;4999581;28;20045;-80
2023/06/17 06:50:26;;;;;;;7.47;4.00;;;;;;;22.82;45.66;100642.38;4987743;28;20049;-85
2023/06/17 06:53:21;;;;;;;5.25;2.50;;;;;;;22.88;45.68;100638.00;4999522;28;20045;-80
2023/06/17 06:56:15;;;;;;;7.78;2.88;;;;;;;22.95;44.96;100642.75;4993289;28;20045;-79
2023/06/17 06:59:10;;;;;;;3.88;2.70;;;;;;;22.98;45.05;100639.97;5014471;28;20433;-81
2023/06/17 07:02:02;;;;;;;5.07;3.50;;;;;;;23.02;44.48;100642.72;4988971;28;20520;-81
2023/06/17 07:04:56;;;;;;;8.73;2.40;;;;;;;23.10;44.22;100643.50;4998586;28;20041;-81
2023/06/17 07:07:56;;;;;;;6.68;2.22;;;;;;;23.16;45.93;100644.66;5004671;28;20052;-76
2023/06/17 07:10:49;;;;;;;3.70;2.30;;;;;;;23.22;46.89;100643.03;4989786;28;20049;-77
2023/06/17 07:13:44;;;;;;;4.72;3.28;;;;;;;23.32;47.00;100644.97;4992985;28;20037;-77
2023/06/17 07:16:38;;;;;;;8.75;2.58;;;;;;;23.38;46.20;100646.94;5011447;28;20045;-77
2023/06/17 07:19:33;;;;;;;8.50;3.22;;;;;;;23.46;45.18;100646.94;4983235;28;20540;-77
2023/06/17 07:22:28;;;;;;;8.77;2.65;;;;;;;23.53;43.04;100642.13;4990707;28;20045;-77
2023/06/17 07:25:23;;;;;;;14.90;2.90;;;;;;;23.60;42.63;100642.09;5002807;28;20047;-78
2023/06/17 07:28:18;;;;;;;8.95;2.60;;;;;;;23.71;42.83;100642.03;4993293;28;20060;-78
2023/06/17 07:31:12;;;;;;;10.02;2.30;;;;;;;23.73;43.78;100647.97;5000092;28;20044;-79
2023/06/17 07:34:08;;;;;;;7.25;2.72;;;;;;;23.77;43.78;100646.75;4997345;28;20049;-77
2023/06/17 07:37:03;;;;;;;6.32;2.85;;;;;;;23.81;43.24;100647.53;4992165;28;20060;-77
2023/06/17 07:39:56;;;;;;;4.47;2.78;;;;;;;23.86;41.70;100647.09;5009037;28;20048;-81
2023/06/17 07:42:51;;;;;;;12.68;2.90;;;;;;;23.97;43.62;100652.59;4975615;28;20069;-80
2023/06/17 07:45:45;;;;;;;7.30;3.25;;;;;;;24.01;41.68;100653.34;5010793;28;20045;-79
2023/06/17 07:48:40;;;;;;;7.28;2.97;;;;;;;24.07;44.20;100648.16;5002651;28;20414;-80
2023/06/17 07:51:34;;;;;;;3.50;2.45;;;;;;;24.17;42.12;100647.31;4990874;28;20538;-80
2023/06/17 07:54:27;;;;;;;4.97;2.75;;;;;;;24.21;42.19;100646.06;4990384;28;20045;-78
2023/06/17 07:57:21;;;;;;;11.07;2.60;;;;;;;24.14;44.28;100651.63;5008090;28;20053;-77
2023/06/17 08:00:17;;;;;;;10.02;3.03;;;;;;;24.11;43.38;100648.91;4996049;28;20052;-76
2023/06/17 08:03:12;;;;;;;5.25;3.28;;;;;;;24.06;43.44;100641.78;5017368;28;20049;-76
2023/06/17 08:06:06;;;;;;;5.57;2.88;;;;;;;24.05;43.81;100644.97;5013842;28;20052;-76
2023/06/17 08:09:01;;;;;;;9.45;2.60;;;;;;;24.09;44.11;100645.72;4998465;28;20057;-76
2023/06/17 08:11:55;;;;;;;9.52;3.08;;;;;;;24.07;43.90;100639.81;4986897;28;20045;-78
2023/06/17 08:14:50;;;;;;;9.15;3.17;;;;;;;24.01;43.92;100638.66;5020416;28;20044;-77
2023/06/17 08:17:44;;;;;;;3.33;2.42;;;;;;;24.08;43.33;100639.38;4996084;28;20045;-78
2023/06/17 08:20:39;;;;;;;6.38;2.75;;;;;;;24.13;43.70;100629.81;4985902;28;20533;-76
2023/06/17 08:23:34;;;;;;;10.85;3.17;;;;;;;24.17;43.06;100636.19;4990673;28;20049;-77
2023/06/17 08:26:28;;;;;;;7.22;3.60;;;;;;;24.14;43.62;100634.97;4988117;28;20073;-76
2023/06/17 08:29:23;;;;;;;4.50;2.45;;;;;;;24.21;43.78;100628.59;4976290;28;20061;-77
2023/06/17 08:32:18;;;;;;;6.60;2.72;;;;;;;24.16;44.16;100623.44;5005284;28;20041;-78
2023/06/17 08:35:07;;;;;;;;;;;;;;;24.13;44.43;100630.59;4986594;28;20402;-79
2023/06/17 08:38:02;;;;;;;7.18;2.75;;;;;;;24.14;44.44;100628.63;4997063;28;19913;-79
2023/06/17 08:40:54;;;;;;;4.20;2.67;;;;;;;24.22;43.44;100630.19;4996426;28;20045;-77
2023/06/17 08:43:51;;;;;;;4.68;2.83;;;;;;;24.20;44.38;100629.78;4974050;28;20053;-78
2023/06/17 08:46:51;;;;;;;16.58;4.70;;;;;;;24.19;44.20;100640.13;5012430;28;20045;-77
2023/06/17 08:49:46;;;;;;;79.55;17.20;;;;;;;24.19;43.67;100631.78;5003140;28;20518;-77
2023/06/17 08:52:42;;;;;;;57.10;13.85;;;;;;;24.18;43.49;100624.63;5001786;28;20046;-77
2023/06/17 08:55:34;;;;;;;44.33;11.57;;;;;;;24.19;43.53;100622.66;4997944;28;20414;-77
2023/06/17 08:58:28;;;;;;;35.42;8.18;;;;;;;24.25;42.47;100623.78;4993609;28;20042;-77
2023/06/17 09:01:25;;;;;;;15.93;4.63;;;;;;;24.32;41.86;100620.97;4999674;28;20057;-76
2023/06/17 09:04:22;;;;;;;18.83;5.38;;;;;;;24.30;42.67;100623.34;5008849;28;20069;-78
2023/06/17 09:07:16;;;;;;;16.95;5.35;;;;;;;24.29;42.43;100624.56;4987536;28;20041;-76
2023/06/17 09:10:09;;;;;;;15.50;4.15;;;;;;;24.26;42.76;100628.16;4989234;28;20422;-77
2023/06/17 09:13:08;;;;;;;7.82;3.95;;;;;;;24.23;42.22;100626.19;4984403;28;20045;-77
2023/06/17 09:16:02;;;;;;;6.55;3.38;;;;;;;24.27;41.99;100624.19;4983644;28;20048;-78
2023/06/17 09:18:58;;;;;;;5.75;2.60;;;;;;;24.30;41.90;100626.13;5008022;28;20065;-76
2023/06/17 09:21:53;;;;;;;8.93;3.40;;;;;;;24.34;41.58;100626.88;5013241;28;20068;-76
2023/06/17 09:24:47;;;;;;;5.75;3.10;;;;;;;24.29;41.46;100625.34;4996411;28;20069;-76
2023/06/17 09:27:49;;;;;;;3.95;2.85;;;;;;;24.29;40.94;100624.56;5003836;28;20044;-76
2023/06/17 09:30:43;;;;;;;3.42;2.30;;;;;;;24.35;40.53;100628.47;4987799;28;20529;-76
2023/06/17 09:33:38;;;;;;;6.68;2.40;;;;;;;24.45;40.72;100624.81;5017155;28;20802;-76
2023/06/17 09:36:33;;;;;;;5.35;2.13;;;;;;;24.45;40.50;100624.81;5012898;28;20049;-76
2023/06/17 09:39:32;;;;;;;12.98;2.90;;;;;;;24.40;41.76;100616.91;5011349;28;20068;-76
2023/06/17 09:42:22;;;;;;;5.10;2.65;;;;;;;24.43;41.26;100623.66;4994610;28;20061;-78
2023/06/17 09:45:24;;;;;;;4.53;2.55;;;;;;;24.35;41.44;100622.13;5001303;28;20044;-77
2023/06/17 09:48:21;;;;;;;4.90;2.22;;;;;;;24.40;41.25;100624.47;4999588;28;20048;-77
2023/06/17 09:51:15;;;;;;;4.35;2.63;;;;;;;24.51;40.87;100619.59;4997335;28;20044;-76
2023/06/17 09:54:07;;;;;;;4.38;2.47;;;;;;;24.40;41.80;100616.13;5000579;28;20041;-76
2023/06/17 09:57:02;;;;;;;3.05;2.22;;;;;;;24.41;41.75;100617.69;5016775;28;20068;-75
2023/06/17 09:59:58;;;;;;;4.18;2.33;;;;;;;24.44;40.99;100609.31;4991090;28;20049;-76
2023/06/17 10:02:52;;;;;;;4.40;2.40;;;;;;;24.38;41.81;100612.97;5007875;28;20069;-75
2023/06/17 10:05:48;;;;;;;5.47;2.45;;;;;;;24.44;41.43;100614.88;4978245;28;20048;-76
2023/06/17 10:09:02;;;;;;;3.55;2.20;;;;;;;24.34;41.37;100612.19;4978781;28;20112;-76
2023/06/17 10:11:57;;;;;;;3.45;2.03;;;;;;;24.35;40.62;100611.78;5004859;28;20041;-78
2023/06/17 10:14:50;;;;;;;7.07;2.30;;;;;;;24.34;40.11;100606.63;4990273;28;20532;-78
2023/06/17 10:17:44;;;;;;;4.10;2.47;;;;;;;24.34;39.54;100607.44;5019587;28;20129;-76
2023/06/17 10:20:40;;;;;;;2.73;2.47;;;;;;;24.33;39.94;100605.84;4984418;28;20072;-77
2023/06/17 10:23:37;;;;;;;4.68;2.50;;;;;;;24.32;38.67;100609.84;4993754;28;20816;-77
2023/06/17 10:26:30;;;;;;;4.35;2.63;;;;;;;24.33;39.30;100613.41;4985943;28;20045;-77
2023/06/17 10:29:23;;;;;;;6.55;2.28;;;;;;;24.47;38.42;100604.94;4985533;28;20046;-76
2023/06/17 10:32:29;;;;;;;4.03;2.38;;;;;;;24.49;37.96;100599.72;5002913;28;20130;-77
2023/06/17 10:35:24;;;;;;;3.33;2.35;;;;;;;24.39;38.97;100606.19;4974808;28;20045;-75
2023/06/17 10:38:34;;;;;;;8.65;2.50;;;;;;;24.34;37.85;100601.06;4996364;28;20057;-80
2023/06/17 10:41:50;;;;;;;5.53;2.25;;;;;;;24.40;38.32;100600.22;5011363;28;20067;-76
2023/06/17 10:44:46;;;;;;;2.58;1.88;;;;;;;24.34;38.04;100599.09;4987258;28;20045;-76
2023/06/17 10:47:41;;;;;;;6.65;2.65;;;;;;;24.34;38.63;100601.88;4984448;28;20415;-77
2023/06/17 10:50:38;;;;;;;3.60;2.17;;;;;;;24.31;37.76;100599.13;5009124;28;20045;-77
2023/06/17 10:53:35;;;;;;;4.22;2.28;;;;;;;24.34;38.34;100607.44;4991739;28;20045;-75
2023/06/17 10:56:27;;;;;;;3.22;2.10;;;;;;;24.53;37.25;100609.63;4990448;28;20049;-76
2023/06/17 10:59:34;;;;;;;4.57;2.20;;;;;;;24.59;37.72;100599.63;4983602;28;20057;-77
2023/06/17 11:02:30;;;;;;;3.50;2.35;;;;;;;24.41;38.22;100601.81;5005332;28;20061;-77
2023/06/17 11:05:24;;;;;;;3.95;2.50;;;;;;;24.54;37.74;100593.72;4985704;28;20045;-78
2023/06/17 11:08:19;;;;;;;3.97;2.53;;;;;;;24.64;37.54;100592.81;4995784;28;20049;-78
2023/06/17 11:11:13;;;;;;;;;;;;;;;24.68;37.82;100599.16;5005008;28;20041;-78
2023/06/17 11:14:05;;;;;;;6.03;2.30;;;;;;;24.68;36.91;100594.38;4991396;28;19914;-78
2023/06/17 11:16:59;;;;;;;6.63;2.50;;;;;;;24.89;36.13;100587.03;4999152;28;20513;-77
2023/06/17 11:19:54;;;;;;;4.43;2.05;;;;;;;24.81;37.22;100589.06;4987435;28;20045;-79
2023/06/17 11:22:49;;;;;;;2.72;1.95;;;;;;;24.85;36.30;100591.78;4994692;28;20049;-76
2023/06/17 11:25:43;;;;;;;3.50;2.28;;;;;;;24.89;36.75;100592.59;5007664;28;20045;-77
2023/06/17 11:28:35;;;;;;;4.90;2.15;;;;;;;24.94;37.42;100590.13;4983208;28;20049;-78
2023/06/17 11:31:30;;;;;;;6.68;2.78;;;;;;;24.97;37.55;100591.28;4989655;28;20048;-77
2023/06/17 11:34:24;;;;;;;5.45;2.22;;;;;;;24.85;38.15;100578.69;4996400;28;20041;-77
2023/06/17 11:37:18;;;;;;;4.68;2.22;;;;;;;24.82;38.59;100573.97;4997007;28;20053;-77
2023/06/17 11:40:12;;;;;;;5.70;3.13;;;;;;;24.68;38.66;100580.47;4992018;28;20049;-77
2023/06/17 11:43:04;;;;;;;5.05;2.00;;;;;;;24.68;38.85;100577.69;5015726;28;20406;-76
2023/06/17 11:46:01;;;;;;;6.10;2.70;;;;;;;24.94;36.58;100567.09;5015243;28;20526;-76
2023/06/17 11:48:57;;;;;;;5.80;2.58;;;;;;;25.00;37.37;100576.53;5004923;28;20045;-76
2023/06/17 11:51:54;;;;;;;5.18;2.58;;;;;;;25.00;37.51;100568.19;5017643;28;20519;-76
2023/06/17 11:54:52;;;;;;;3.70;2.47;;;;;;;25.00;37.59;100570.97;4988377;28;20053;-76
2023/06/17 11:57:47;;;;;;;3.42;2.35;;;;;;;25.10;37.39;100565.28;5015376;28;20045;-75
2023/06/17 12:00:39;;;;;;;4.85;2.55;;;;;;;25.13;37.82;100561.69;4999205;28;20046;-77
2023/06/17 12:03:32;;;;;;;8.55;3.00;;;;;;;24.89;38.23;100559.22;5013781;28;20045;-77
2023/06/17 12:06:27;;;;;;;8.90;2.60;;;;;;;24.87;38.64;100556.03;5007513;28;20061;-77
2023/06/17 12:09:19;;;;;;;7.07;2.97;;;;;;;24.71;38.22;100549.06;4996135;28;20046;-76
2023/06/17 12:12:13;;;;;;;5.32;3.17;;;;;;;24.92;37.88;100550.81;5004390;28;20069;-77
2023/06/17 12:15:09;;;;;;;6.22;3.00;;;;;;;25.26;36.54;100547.16;4993757;28;20044;-77
2023/06/17 12:18:13;;;;;;;7.28;3.08;;;;;;;25.28;37.32;100548.34;4987283;28;20061;-76
2023/06/17 12:21:12;;;;;;;4.03;2.67;;;;;;;25.31;37.19;100539.13;4996264;28;20073;-76
2023/06/17 12:24:07;;;;;;;22.38;5.95;;;;;;;25.49;36.61;100538.91;5012987;28;20117;-77
2023/06/17 12:27:04;;;;;;;11.23;3.67;;;;;;;25.13;38.23;100530.28;5021508;28;20049;-77
2023/06/17 12:30:05;;;;;;;6.57;3.42;;;;;;;25.06;38.81;100522.78;4997239;28;20042;-77
2023/06/17 12:32:58;;;;;;;7.97;2.97;;;;;;;24.88;39.90;100527.03;4989965;28;20045;-77
2023/06/17 12:35:55;;;;;;;13.95;3.15;;;;;;;24.89;39.62;100511.91;4988480;28;20521;-77
2023/06/17 12:38:48;;;;;;;5.55;3.30;;;;;;;24.83;39.92;100516.34;4994297;28;20414;-76
2023/06/17 12:41:39;;;;;;;6.30;2.80;;;;;;;24.86;39.62;100513.50;4996923;28;20052;-77
2023/06/17 12:44:34;;;;;;;8.52;3.17;;;;;;;25.00;39.56;100510.56;5003084;28;20056;-78
2023/06/17 12:47:28;;;;;;;4.28;3.22;;;;;;;25.14;38.90;100510.34;4998452;28;20537;-76
2023/06/17 12:50:21;;;;;;;6.47;2.83;;;;;;;25.06;39.40;100502.53;5006878;28;20048;-77
2023/06/17 12:53:15;;;;;;;7.53;3.22;;;;;;;25.36;37.17;100508.03;5001546;28;20411;-77
2023/06/17 12:56:10;;;;;;;5.32;3.08;;;;;;;25.16;39.02;100498.81;5015708;28;20422;-78
2023/06/17 12:58:57;;;;;;;5.57;2.95;;;;;;;25.15;38.77;100505.56;5005346;28;20053;-77
2023/06/17 13:01:49;;;;;;;4.28;2.95;;;;;;;25.42;37.00;100500.78;5000205;28;20056;-79
2023/06/17 13:04:41;;;;;;;5.38;2.75;;;;;;;25.47;37.54;100499.53;5014560;28;20524;-77
2023/06/17 13:07:34;;;;;;;4.43;3.22;;;;;;;25.74;35.62;100503.09;5001571;28;20053;-78
2023/06/17 13:10:27;;;;;;;6.80;3.63;;;;;;;25.57;36.64;100498.59;4977966;28;20058;-76
2023/06/17 13:13:16;;;;;;;6.05;3.17;;;;;;;25.40;37.12;100494.84;5012907;28;20045;-77
2023/06/17 13:16:13;;;;;;;5.90;2.83;;;;;;;25.46;36.67;100498.75;4990796;28;20041;-76
2023/06/17 13:19:05;;;;;;;4.22;3.03;;;;;;;25.32;37.25;100493.41;5003854;28;20061;-77
2023/06/17 13:21:57;;;;;;;;;;;;;;;25.96;33.71;100492.34;4998823;28;20064;-77
2023/06/17 13:24:51;;;;;;;6.88;3.42;;;;;;;25.72;35.51;100493.59;4973897;28;19917;-75
2023/06/17 13:27:46;;;;;;;6.10;3.90;;;;;;;25.63;35.50;100485.00;4995607;28;20045;-76
2023/06/17 13:30:40;;;;;;;9.98;4.40;;;;;;;25.49;35.75;100492.34;4990309;28;20045;-76
2023/06/17 13:33:37;;;;;;;6.00;3.22;;;;;;;25.48;35.53;100496.34;5018040;28;20114;-76
2023/06/17 13:36:32;;;;;;;6.95;3.60;;;;;;;25.43;35.86;100493.22;4999474;28;20053;-77
2023/06/17 13:39:27;;;;;;;10.95;3.47;;;;;;;25.37;36.68;100490.13;5001635;28;20054;-77